Hatgal, Mongolia
Current Conditions -  °F | °C
As of 12:30 PM on Monday 20 Oct 2014 (Local Time) from UIII Reporting Station
Clear Clear  
Wind Chill: 27°   Ceiling: Unl
Heat Index: 27°   Visibility: 6mi
Dew Point: 10°   Wind: 2mph
Humidity: 51%   Direction: NA
Pressure: 30.3"   Gusts: NA
Location:  50.45°N, 100.15°E
Report Text: UIII 200430Z VRB01MPS CAVOK M03/M12 Q1026 NOSIG RMK QFE726/096912CLRD60
Loading
Personal Weather Stations






























Interactive Weather Map
Tropical Storm Tracking
New forecast layout! Learn more

10-Day Weather Forecast

Advertisements
Track Severe Weather on mobile